createdAt,value
2022-09-23T00:01:20.395Z,7.48
2022-09-23T00:03:49.252Z,7.33
2022-09-23T00:06:22.795Z,7.17
2022-09-23T00:08:51.351Z,7.20
2022-09-23T00:11:24.512Z,7.26
2022-09-23T00:13:54.924Z,7.31
2022-09-23T00:16:32.539Z,7.38
2022-09-23T00:19:02.410Z,7.38
2022-09-23T00:21:30.111Z,7.44
2022-09-23T00:23:57.614Z,7.28
2022-09-23T00:26:25.365Z,7.20
2022-09-23T00:28:52.862Z,6.75
2022-09-23T00:31:25.942Z,6.66
2022-09-23T00:33:59.640Z,6.55
2022-09-23T00:36:28.342Z,6.52
2022-09-23T00:38:56.789Z,6.80
2022-09-23T00:41:24.608Z,6.90
2022-09-23T00:43:53.523Z,6.76
2022-09-23T00:46:38.901Z,6.68
2022-09-23T00:49:09.401Z,6.69
2022-09-23T00:51:43.444Z,6.77
2022-09-23T00:54:11.449Z,6.73
2022-09-23T00:56:39.856Z,6.73
2022-09-23T00:59:09.616Z,6.80
2022-09-23T01:01:38.360Z,6.77
2022-09-23T01:04:07.852Z,6.72
2022-09-23T01:06:35.717Z,6.75
2022-09-23T01:09:03.527Z,6.79
2022-09-23T01:11:43.130Z,6.69
2022-09-23T01:14:29.250Z,6.68
2022-09-23T01:17:06.820Z,6.89
2022-09-23T01:19:36.859Z,6.97
2022-09-23T01:22:10.298Z,6.94
2022-09-23T01:24:43.462Z,6.95
2022-09-23T01:27:46.656Z,6.94
2022-09-23T01:30:20.815Z,6.91
2022-09-23T01:33:08.118Z,6.99
2022-09-23T01:36:00.884Z,7.07
2022-09-23T01:38:43.749Z,7.02
2022-09-23T01:41:38.778Z,7.06
2022-09-23T01:44:11.322Z,7.04
2022-09-23T01:46:48.330Z,6.73
2022-09-23T01:49:35.250Z,6.98
2022-09-23T01:52:14.703Z,6.87
2022-09-23T01:54:58.672Z,6.59
2022-09-23T01:57:32.252Z,6.59
2022-09-23T02:00:23.022Z,6.32
2022-09-23T02:03:01.506Z,6.37
2022-09-23T02:05:41.378Z,6.53
2022-09-23T02:08:19.456Z,6.51
2022-09-23T02:10:56.398Z,6.44
2022-09-23T02:13:40.020Z,6.40
2022-09-23T02:16:22.107Z,6.46
2022-09-23T02:18:56.180Z,5.88
2022-09-23T02:21:29.916Z,6.11
2022-09-23T02:24:11.648Z,6.09
2022-09-23T02:26:54.376Z,5.79
2022-09-23T02:29:33.709Z,5.82
2022-09-23T02:32:15.424Z,6.05
2022-09-23T02:34:57.132Z,5.85
2022-09-23T02:37:53.291Z,6.03
2022-09-23T02:40:38.576Z,6.15
2022-09-23T02:43:08.897Z,6.06
2022-09-23T02:45:38.975Z,6.15
2022-09-23T02:48:44.336Z,6.22
2022-09-23T02:51:13.097Z,6.32
2022-09-23T02:53:40.529Z,6.35
2022-09-23T02:56:21.114Z,6.34
2022-09-23T02:58:51.826Z,6.40
2022-09-23T03:01:26.268Z,6.40
2022-09-23T03:04:13.106Z,6.25
2022-09-23T03:07:00.862Z,6.28
2022-09-23T03:09:34.814Z,5.84
2022-09-23T03:12:06.791Z,6.05
2022-09-23T03:14:53.917Z,6.16
2022-09-23T03:17:30.337Z,6.17
2022-09-23T03:20:16.319Z,5.94
2022-09-23T03:22:52.986Z,6.14
2022-09-23T03:25:24.433Z,6.22
2022-09-23T03:27:57.467Z,6.18
2022-09-23T03:30:26.464Z,6.27
2022-09-23T03:32:57.091Z,6.35
2022-09-23T03:35:29.306Z,6.49
2022-09-23T03:38:16.018Z,6.63
2022-09-23T03:40:47.798Z,6.64
2022-09-23T03:43:15.328Z,6.64
2022-09-23T03:45:42.915Z,6.61
2022-09-23T03:48:10.572Z,6.53
2022-09-23T03:50:39.213Z,6.48
2022-09-23T03:53:07.005Z,6.44
2022-09-23T03:55:34.867Z,6.35
2022-09-23T03:58:04.794Z,6.35
2022-09-23T04:00:32.250Z,6.29
2022-09-23T04:02:59.924Z,6.32
2022-09-23T04:05:27.372Z,6.35
2022-09-23T04:07:54.977Z,6.28
2022-09-23T04:10:22.830Z,6.20
2022-09-23T04:12:50.236Z,6.11
2022-09-23T04:15:17.829Z,6.16
2022-09-23T04:17:45.649Z,6.14
2022-09-23T04:20:13.068Z,6.12
2022-09-23T04:22:40.827Z,6.18
2022-09-23T04:25:08.923Z,6.14
2022-09-23T04:27:37.863Z,6.19
2022-09-23T04:30:06.950Z,6.22
2022-09-23T04:32:34.696Z,6.17
2022-09-23T04:35:02.206Z,6.11
2022-09-23T04:37:30.402Z,6.11
2022-09-23T04:39:58.117Z,6.11
2022-09-23T04:42:30.031Z,6.03
2022-09-23T04:44:57.956Z,5.85
2022-09-23T04:47:26.042Z,5.90
2022-09-23T04:49:57.769Z,5.96
2022-09-23T04:52:27.346Z,5.93
2022-09-23T04:54:54.718Z,5.97
2022-09-23T04:57:22.145Z,6.06
2022-09-23T04:59:49.831Z,6.06
2022-09-23T05:02:17.246Z,5.93
2022-09-23T05:04:45.075Z,5.69
2022-09-23T05:07:12.922Z,5.60
2022-09-23T05:09:40.273Z,5.86
2022-09-23T05:12:07.761Z,5.82
2022-09-23T05:14:35.549Z,6.06
2022-09-23T05:17:02.960Z,6.11
2022-09-23T05:19:30.324Z,6.06
2022-09-23T05:21:58.068Z,6.13
2022-09-23T05:24:26.193Z,6.26
2022-09-23T05:26:54.153Z,6.46
2022-09-23T05:29:21.837Z,6.59
2022-09-23T05:31:49.379Z,6.66
2022-09-23T05:34:18.656Z,6.87
2022-09-23T05:36:46.361Z,6.96
2022-09-23T05:39:13.842Z,7.08
2022-09-23T05:41:43.511Z,7.20
2022-09-23T05:44:15.347Z,7.30
2022-09-23T05:46:42.887Z,7.41
2022-09-23T05:49:10.498Z,7.38
2022-09-23T05:51:38.496Z,7.35
2022-09-23T05:54:06.632Z,7.49
2022-09-23T05:56:35.036Z,7.26
2022-09-23T05:59:04.367Z,7.17
2022-09-23T06:01:34.195Z,7.42
2022-09-23T06:04:04.889Z,7.59
2022-09-23T06:06:36.053Z,7.57
2022-09-23T06:09:05.512Z,7.65
2022-09-23T06:11:34.676Z,7.88
2022-09-23T06:14:03.242Z,8.16
2022-09-23T06:16:34.791Z,8.31
2022-09-23T06:19:05.817Z,8.49
2022-09-23T06:21:38.802Z,8.66
2022-09-23T06:24:07.627Z,8.84
2022-09-23T06:26:37.544Z,9.04
2022-09-23T06:29:10.717Z,9.25
2022-09-23T06:31:40.681Z,9.42
2022-09-23T06:34:14.208Z,9.61
2022-09-23T06:36:45.424Z,9.21
2022-09-23T06:39:16.682Z,9.67
2022-09-23T06:41:45.180Z,9.90
2022-09-23T06:44:13.895Z,9.99
2022-09-23T06:46:41.644Z,10.10
2022-09-23T06:49:09.652Z,10.23
2022-09-23T06:51:36.999Z,10.31
2022-09-23T06:54:04.739Z,10.48
2022-09-23T06:56:38.532Z,10.65
2022-09-23T06:59:09.639Z,10.77
2022-09-23T07:01:37.908Z,10.91
2022-09-23T07:04:07.371Z,11.09
2022-09-23T07:06:35.291Z,11.27
2022-09-23T07:09:03.839Z,11.46
2022-09-23T07:11:31.402Z,11.58
2022-09-23T07:13:58.849Z,11.69
2022-09-23T07:16:26.611Z,11.77
2022-09-23T07:21:22.413Z,12.17
2022-09-23T07:23:51.924Z,12.27
2022-09-23T07:26:20.547Z,12.41
2022-09-23T07:28:52.746Z,12.46
2022-09-23T07:31:34.379Z,12.54
2022-09-23T07:34:06.288Z,12.84
2022-09-23T07:36:37.143Z,13.08
2022-09-23T07:39:05.112Z,13.30
2022-09-23T07:41:34.430Z,13.39
2022-09-23T07:44:03.079Z,13.55
2022-09-23T07:46:33.144Z,13.67
2022-09-23T07:49:01.962Z,13.87
2022-09-23T07:51:36.083Z,14.02
2022-09-23T07:54:07.938Z,14.16
2022-09-23T07:56:37.027Z,14.21
2022-09-23T07:59:05.844Z,14.34
2022-09-23T08:01:38.987Z,14.53
2022-09-23T08:04:10.639Z,14.63
2022-09-23T08:06:46.889Z,14.69
2022-09-23T08:09:16.019Z,14.87
2022-09-23T08:11:43.453Z,14.95
2022-09-23T08:14:13.638Z,14.71
2022-09-23T08:16:42.769Z,14.83
2022-09-23T08:19:10.467Z,15.05
2022-09-23T08:21:39.383Z,15.16
2022-09-23T08:24:08.981Z,14.88
2022-09-23T08:26:36.472Z,15.01
2022-09-23T08:29:05.103Z,15.26
2022-09-23T08:31:32.902Z,15.35
2022-09-23T08:34:00.354Z,15.53
2022-09-23T08:36:28.082Z,15.50
2022-09-23T08:38:57.179Z,15.53
2022-09-23T08:41:45.976Z,15.58
2022-09-23T08:44:20.250Z,15.58
2022-09-23T08:46:54.728Z,15.55
2022-09-23T08:49:36.588Z,15.47
2022-09-23T08:52:13.562Z,15.58
2022-09-23T08:54:42.259Z,15.87
2022-09-23T08:57:25.889Z,15.90
2022-09-23T08:59:54.643Z,16.04
2022-09-23T09:02:23.208Z,16.02
2022-09-23T09:05:06.010Z,16.22
2022-09-23T09:07:37.382Z,16.28
2022-09-23T09:10:45.675Z,15.99
2022-09-23T09:13:31.019Z,15.66
2022-09-23T09:16:11.403Z,15.93
2022-09-23T09:18:55.115Z,16.34
2022-09-23T09:21:32.421Z,16.05
2022-09-23T09:24:01.862Z,15.76
2022-09-23T09:26:34.336Z,15.96
2022-09-23T09:29:35.509Z,15.99
2022-09-23T09:32:16.808Z,16.06
2022-09-23T09:34:54.568Z,16.12
2022-09-23T09:37:46.872Z,15.90
2022-09-23T09:40:17.219Z,16.22
2022-09-23T09:42:49.857Z,16.38
2022-09-23T09:45:34.659Z,16.62
2022-09-23T09:48:11.117Z,16.61
2022-09-23T09:50:50.244Z,16.37
2022-09-23T09:53:23.886Z,16.09
2022-09-23T09:56:07.292Z,16.01
2022-09-23T09:58:43.860Z,16.40
2022-09-23T10:01:31.095Z,16.40
2022-09-23T10:04:05.310Z,17.05
2022-09-23T10:06:35.177Z,17.25
2022-09-23T10:09:19.444Z,17.28
2022-09-23T10:12:15.490Z,17.61
2022-09-23T10:14:43.287Z,17.69
2022-09-23T10:17:24.486Z,17.51
2022-09-23T10:20:00.891Z,17.09
2022-09-23T10:22:42.337Z,16.77
2022-09-23T10:25:19.105Z,16.59
2022-09-23T10:27:46.931Z,16.75
2022-09-23T10:30:23.757Z,16.50
2022-09-23T10:32:54.864Z,16.78
2022-09-23T10:35:25.428Z,17.19
2022-09-23T10:37:55.831Z,17.18
2022-09-23T10:40:48.288Z,17.45
2022-09-23T10:43:58.873Z,17.36
2022-09-23T10:46:38.743Z,17.45
2022-09-23T10:49:57.784Z,17.35
2022-09-23T10:52:28.309Z,17.20
2022-09-23T10:55:10.716Z,17.49
2022-09-23T10:57:50.991Z,17.35
2022-09-23T11:00:23.043Z,17.47
2022-09-23T11:03:33.478Z,17.78
2022-09-23T11:06:12.207Z,17.60
2022-09-23T11:09:04.557Z,17.24
2022-09-23T11:12:26.376Z,17.03
2022-09-23T11:15:18.819Z,16.66
2022-09-23T11:18:19.793Z,16.64
2022-09-23T11:21:07.552Z,16.87
2022-09-23T11:23:54.419Z,16.82
2022-09-23T11:26:41.419Z,16.81
2022-09-23T11:29:33.810Z,17.01
2022-09-23T11:32:20.882Z,17.31
2022-09-23T11:34:54.338Z,17.63
2022-09-23T11:37:31.471Z,17.76
2022-09-23T11:40:05.370Z,17.58
2022-09-23T11:42:39.938Z,17.76
2022-09-23T11:45:15.868Z,17.94
2022-09-23T11:48:31.189Z,17.68
2022-09-23T11:51:04.987Z,17.44
2022-09-23T11:53:49.396Z,17.29
2022-09-23T11:56:34.926Z,17.17
2022-09-23T11:59:07.339Z,17.03
2022-09-23T12:01:47.105Z,16.77
2022-09-23T12:04:33.474Z,16.46
2022-09-23T12:07:13.680Z,16.12
2022-09-23T12:10:01.436Z,16.22
2022-09-23T12:12:34.788Z,16.50
2022-09-23T12:15:51.106Z,15.95
2022-09-23T12:18:49.183Z,16.22
2022-09-23T12:21:50.625Z,16.30
2022-09-23T12:24:44.818Z,16.61
2022-09-23T12:27:28.623Z,17.25
2022-09-23T12:30:02.070Z,17.56
2022-09-23T12:32:32.207Z,17.68
2022-09-23T12:35:02.877Z,17.43
2022-09-23T12:37:39.008Z,17.23
2022-09-23T12:40:43.787Z,17.04
2022-09-23T12:43:31.256Z,16.78
2022-09-23T12:46:28.277Z,16.65
2022-09-23T12:49:00.525Z,17.00
2022-09-23T12:51:36.361Z,16.97
2022-09-23T12:54:15.355Z,17.44
2022-09-23T12:56:58.217Z,17.67
2022-09-23T12:59:53.909Z,17.64
2022-09-23T13:02:33.062Z,17.31
2022-09-23T13:05:40.788Z,17.35
2022-09-23T13:08:17.271Z,17.34
2022-09-23T13:10:49.451Z,17.48
2022-09-23T13:13:22.124Z,16.83
2022-09-23T13:15:50.234Z,17.20
2022-09-23T13:18:20.890Z,17.03
2022-09-23T13:20:50.725Z,17.45
2022-09-23T13:23:22.807Z,17.65
2022-09-23T13:25:53.959Z,17.77
2022-09-23T13:28:53.269Z,17.78
2022-09-23T13:31:21.362Z,17.80
2022-09-23T13:33:54.394Z,18.05
2022-09-23T13:36:21.809Z,18.14
2022-09-23T13:38:49.993Z,18.23
2022-09-23T13:41:23.806Z,18.27
2022-09-23T13:43:59.514Z,18.15
2022-09-23T13:46:33.949Z,18.14
2022-09-23T13:49:03.169Z,18.14
2022-09-23T13:51:34.966Z,18.00
2022-09-23T13:54:04.709Z,17.74
2022-09-23T13:56:33.333Z,17.65
2022-09-23T13:59:19.529Z,17.61
2022-09-23T14:01:47.356Z,17.50
2022-09-23T14:04:25.349Z,17.52
2022-09-23T14:06:54.365Z,17.48
2022-09-23T14:09:27.456Z,17.43
2022-09-23T14:12:00.655Z,17.27
2022-09-23T14:14:30.577Z,17.09
2022-09-23T14:16:58.883Z,16.92
2022-09-23T14:19:26.709Z,16.76
2022-09-23T14:21:56.165Z,16.79
2022-09-23T14:24:31.831Z,16.93
2022-09-23T14:27:09.929Z,16.86
2022-09-23T14:29:40.299Z,16.88
2022-09-23T14:32:11.026Z,16.96
2022-09-23T14:35:16.003Z,17.06
2022-09-23T14:38:05.007Z,17.08
2022-09-23T14:40:53.703Z,17.13
2022-09-23T14:43:25.947Z,17.16
2022-09-23T14:45:58.262Z,17.23
2022-09-23T14:48:30.087Z,17.29
2022-09-23T14:51:00.115Z,17.25
2022-09-23T14:53:43.050Z,17.29
2022-09-23T14:56:41.400Z,17.17
2022-09-23T14:59:33.132Z,16.99
2022-09-23T15:02:00.561Z,16.91
2022-09-23T15:04:32.223Z,16.78
2022-09-23T15:07:04.462Z,16.59
2022-09-23T15:09:37.136Z,16.52
2022-09-23T15:12:13.646Z,16.39
2022-09-23T15:14:50.921Z,16.23
2022-09-23T15:17:18.336Z,16.17
2022-09-23T15:19:52.652Z,16.17
2022-09-23T15:22:20.203Z,16.15
2022-09-23T15:24:47.879Z,16.14
2022-09-23T15:27:24.110Z,16.13
2022-09-23T15:29:52.991Z,16.14
2022-09-23T15:32:22.028Z,16.14
2022-09-23T15:34:50.405Z,16.08
2022-09-23T15:37:18.141Z,16.05
2022-09-23T15:39:45.568Z,16.01
2022-09-23T15:42:12.916Z,15.94
2022-09-23T15:44:40.656Z,15.90
2022-09-23T15:47:14.847Z,15.84
2022-09-23T15:49:47.018Z,15.80
2022-09-23T15:52:15.849Z,15.74
2022-09-23T15:54:43.835Z,15.66
2022-09-23T15:57:11.493Z,15.58
2022-09-23T15:59:38.875Z,15.51
2022-09-23T16:02:18.058Z,15.43
2022-09-23T16:04:49.031Z,15.31
2022-09-23T16:07:17.029Z,15.19
2022-09-23T16:09:44.388Z,15.08
2022-09-23T16:12:12.610Z,14.97
2022-09-23T16:14:40.008Z,14.84
2022-09-23T16:17:09.077Z,14.76
2022-09-23T16:19:36.713Z,14.63
2022-09-23T16:22:04.240Z,14.48
2022-09-23T16:24:31.683Z,14.34
2022-09-23T16:27:04.118Z,14.24
2022-09-23T16:29:31.824Z,14.17
2022-09-23T16:32:00.997Z,14.08
2022-09-23T16:34:28.638Z,13.99
2022-09-23T16:36:56.078Z,13.89
2022-09-23T16:39:23.945Z,13.79
2022-09-23T16:41:51.658Z,13.70
2022-09-23T16:44:20.175Z,13.62
2022-09-23T16:46:47.866Z,13.55
2022-09-23T16:49:15.216Z,13.49
2022-09-23T16:51:42.593Z,13.35
2022-09-23T16:54:12.744Z,13.23
2022-09-23T16:56:46.332Z,13.07
2022-09-23T16:59:14.935Z,13.00
2022-09-23T17:02:01.387Z,12.91
2022-09-23T17:04:29.206Z,12.79
2022-09-23T17:06:56.793Z,12.63
2022-09-23T17:09:27.463Z,12.57
2022-09-23T17:12:10.144Z,12.49
2022-09-23T17:14:37.537Z,12.36
2022-09-23T17:17:06.442Z,12.28
2022-09-23T17:19:34.689Z,12.23
2022-09-23T17:22:02.117Z,12.17
2022-09-23T17:24:29.711Z,12.10
2022-09-23T17:26:57.056Z,11.91
2022-09-23T17:29:26.749Z,11.91
2022-09-23T17:31:54.687Z,11.83
2022-09-23T17:34:22.187Z,11.84
2022-09-23T17:36:49.721Z,11.77
2022-09-23T17:39:17.684Z,11.70
2022-09-23T17:41:45.492Z,11.66
2022-09-23T17:44:12.979Z,11.61
2022-09-23T17:46:40.586Z,11.51
2022-09-23T17:49:09.169Z,11.51
2022-09-23T17:51:37.205Z,11.46
2022-09-23T17:54:04.920Z,11.41
2022-09-23T17:56:33.854Z,11.36
2022-09-23T17:59:02.144Z,11.35
2022-09-23T18:01:29.952Z,11.28
2022-09-23T18:04:01.783Z,11.28
2022-09-23T18:06:31.756Z,11.25
2022-09-23T18:09:01.555Z,11.19
2022-09-23T18:11:31.502Z,10.94
2022-09-23T18:14:04.974Z,10.57
2022-09-23T18:16:37.604Z,10.45
2022-09-23T18:19:07.386Z,10.50
2022-09-23T18:21:37.395Z,10.27
2022-09-23T18:26:54.517Z,10.34
2022-09-23T18:29:22.200Z,10.27
2022-09-23T18:31:51.047Z,10.23
2022-09-23T18:34:18.833Z,10.34
2022-09-23T18:36:46.648Z,10.39
2022-09-23T18:39:14.065Z,10.40
2022-09-23T18:41:41.578Z,10.34
2022-09-23T18:44:09.654Z,10.18
2022-09-23T18:46:37.367Z,10.28
2022-09-23T18:49:23.569Z,10.28
2022-09-23T18:51:53.647Z,10.31
2022-09-23T18:54:23.004Z,10.33
2022-09-23T18:56:52.682Z,10.30
2022-09-23T18:59:24.655Z,10.30
2022-09-23T19:01:55.375Z,10.32
2022-09-23T19:04:25.017Z,10.30
2022-09-23T19:06:54.736Z,10.26
2022-09-23T19:09:22.302Z,10.18
2022-09-23T19:11:52.190Z,10.23
2022-09-23T19:14:20.166Z,10.19
2022-09-23T19:16:49.181Z,10.07
2022-09-23T19:19:16.840Z,9.95
2022-09-23T19:21:44.604Z,9.88
2022-09-23T19:24:15.744Z,9.77
2022-09-23T19:26:44.070Z,9.75
2022-09-23T19:29:17.102Z,9.79
2022-09-23T19:31:45.175Z,9.79
2022-09-23T19:34:18.576Z,9.83
2022-09-23T19:36:47.670Z,9.87
2022-09-23T19:39:28.215Z,9.87
2022-09-23T19:41:56.119Z,9.78
2022-09-23T19:44:26.739Z,9.69
2022-09-23T19:46:56.768Z,9.64
2022-09-23T19:49:25.663Z,9.55
2022-09-23T19:51:55.450Z,9.46
2022-09-23T19:54:26.057Z,9.42
2022-09-23T19:56:54.055Z,9.29
2022-09-23T19:59:21.505Z,9.30
2022-09-23T20:01:48.884Z,9.38
2022-09-23T20:04:17.072Z,9.43
2022-09-23T20:06:45.898Z,9.51
2022-09-23T20:09:13.609Z,9.49
2022-09-23T20:11:44.072Z,9.53
2022-09-23T20:14:11.956Z,9.48
2022-09-23T20:16:39.398Z,9.36
2022-09-23T20:19:07.445Z,9.49
2022-09-23T20:21:35.464Z,9.52
2022-09-23T20:24:06.979Z,9.48
2022-09-23T20:26:53.621Z,9.52
2022-09-23T20:29:21.006Z,9.46
2022-09-23T20:31:48.951Z,9.42
2022-09-23T20:34:16.436Z,9.45
2022-09-23T20:36:44.220Z,9.47
2022-09-23T20:39:11.920Z,9.48
2022-09-23T20:41:39.698Z,9.46
2022-09-23T20:44:14.127Z,9.39
2022-09-23T20:46:48.458Z,9.43
2022-09-23T20:49:17.490Z,9.50
2022-09-23T20:51:47.531Z,9.44
2022-09-23T20:54:16.404Z,9.37
2022-09-23T20:56:43.734Z,9.34
2022-09-23T20:59:14.889Z,9.33
2022-09-23T21:01:42.798Z,9.19
2022-09-23T21:04:10.280Z,9.16
2022-09-23T21:06:39.119Z,9.24
2022-09-23T21:09:10.853Z,9.27
2022-09-23T21:11:38.525Z,9.28
2022-09-23T21:14:06.086Z,9.24
2022-09-23T21:16:33.861Z,9.25
2022-09-23T21:19:03.164Z,9.18
2022-09-23T21:21:30.588Z,9.05
2022-09-23T21:24:17.241Z,9.01
2022-09-23T21:26:47.758Z,8.76
2022-09-23T21:29:15.172Z,8.72
2022-09-23T21:31:42.660Z,8.71
2022-09-23T21:34:11.433Z,8.63
2022-09-23T21:36:42.707Z,8.56
2022-09-23T21:39:11.650Z,8.68
2022-09-23T21:41:40.008Z,8.58
2022-09-23T21:44:08.548Z,8.46
2022-09-23T21:46:38.215Z,8.34
2022-09-23T21:49:05.785Z,8.29
2022-09-23T21:51:37.706Z,8.17
2022-09-23T21:54:07.250Z,8.13
2022-09-23T21:56:36.383Z,8.14
2022-09-23T21:59:04.232Z,8.12
2022-09-23T22:01:34.950Z,8.17
2022-09-23T22:04:07.964Z,8.13
2022-09-23T22:06:38.271Z,7.98
2022-09-23T22:09:08.989Z,7.96
2022-09-23T22:11:56.320Z,7.97
2022-09-23T22:14:26.292Z,7.97
2022-09-23T22:16:57.490Z,7.88
2022-09-23T22:19:27.074Z,7.82
2022-09-23T22:21:55.857Z,7.91
2022-09-23T22:24:23.377Z,7.83
2022-09-23T22:26:51.215Z,7.72
2022-09-23T22:29:37.519Z,7.68
2022-09-23T22:32:28.264Z,7.83
2022-09-23T22:34:56.030Z,7.88
2022-09-23T22:37:34.167Z,7.89
2022-09-23T22:40:11.002Z,7.89
2022-09-23T22:42:40.120Z,7.87
2022-09-23T22:45:09.224Z,7.90
2022-09-23T22:47:39.600Z,7.75
2022-09-23T22:50:09.109Z,7.81
2022-09-23T22:52:37.425Z,7.78
2022-09-23T22:55:07.774Z,7.76
2022-09-23T22:57:36.433Z,7.72
2022-09-23T23:00:08.301Z,7.69
2022-09-23T23:02:36.731Z,7.68
2022-09-23T23:05:04.389Z,7.75
2022-09-23T23:07:35.007Z,7.76
2022-09-23T23:10:03.927Z,7.77
2022-09-23T23:12:33.433Z,7.80
2022-09-23T23:15:00.798Z,7.79
2022-09-23T23:17:29.829Z,7.80
2022-09-23T23:19:57.849Z,7.70
2022-09-23T23:22:28.527Z,7.71
2022-09-23T23:24:56.518Z,7.72
2022-09-23T23:27:23.947Z,7.72
2022-09-23T23:29:51.454Z,7.71
2022-09-23T23:32:19.113Z,7.71
2022-09-23T23:34:46.726Z,7.80
2022-09-23T23:37:17.641Z,7.84
2022-09-23T23:39:48.037Z,7.80
2022-09-23T23:42:15.573Z,7.77
2022-09-23T23:44:42.945Z,7.82
2022-09-23T23:47:10.641Z,7.88
2022-09-23T23:49:38.175Z,7.69
2022-09-23T23:52:05.742Z,7.69
2022-09-23T23:54:33.387Z,7.67
2022-09-23T23:57:00.772Z,7.51
2022-09-23T23:59:28.788Z,7.51
